Time;durP1;ratioP1;P1;durP2;ratioP2;P2;SDS_P1;SDS_P2;PMS_P1;PMS_P2;Temp;Humidity;BMP_temperature;BMP_pressure;BME280_temperature;BME280_humidity;BME280_pressure;Samples;Min_cycle;Max_cycle;Signal;HPM_P1;HPM_P2
2024/01/20 00:02:16;;;;;;;16.43;6.47;;;;;;;1.67;56.41;100809.56;6161731;22;101420;-80
2024/01/20 00:04:42;;;;;;;17.13;7.00;;;;;;;1.74;56.49;100813.94;6162222;22;96510;-82
2024/01/20 00:07:07;;;;;;;17.00;7.00;;;;;;;1.73;55.86;100821.69;6212920;22;96768;-81
2024/01/20 00:09:33;;;;;;;15.90;7.03;;;;;;;1.71;56.29;100824.25;6212681;22;97989;-80
2024/01/20 00:11:58;;;;;;;16.83;8.60;;;;;;;1.63;56.04;100815.56;6162215;22;101688;-80
2024/01/20 00:14:24;;;;;;;25.90;9.43;;;;;;;1.49;55.85;100812.84;6187406;22;96451;-80
2024/01/20 00:16:49;;;;;;;17.50;7.40;;;;;;;1.36;55.92;100804.03;6187213;22;96880;-79
2024/01/20 00:19:15;;;;;;;19.70;7.60;;;;;;;1.56;55.85;100837.91;6161059;22;100958;-80
2024/01/20 00:21:40;;;;;;;20.93;6.80;;;;;;;1.29;55.22;100793.63;6212544;22;98349;-82
2024/01/20 00:24:07;;;;;;;19.07;6.80;;;;;;;1.31;55.86;100807.47;6187323;22;96495;-80
2024/01/20 00:26:33;;;;;;;18.00;7.27;;;;;;;1.36;55.48;100821.28;6162058;22;96881;-82
2024/01/20 00:28:58;;;;;;;20.77;7.30;;;;;;;1.38;55.17;100809.25;6186676;22;100279;-80
2024/01/20 00:31:24;;;;;;;13.83;6.20;;;;;;;1.23;55.25;100788.41;6186884;22;100948;-80
2024/01/20 00:33:49;;;;;;;17.17;6.90;;;;;;;1.51;55.19;100825.78;6187227;22;96504;-80
2024/01/20 00:36:15;;;;;;;21.57;7.90;;;;;;;1.32;55.36;100797.13;6187686;22;96851;-80
2024/01/20 00:38:42;;;;;;;19.67;7.40;;;;;;;1.41;55.51;100826.53;6161450;22;101407;-79
2024/01/20 00:41:08;;;;;;;20.67;7.07;;;;;;;1.48;55.16;100846.44;6161658;22;100653;-82
2024/01/20 00:43:34;;;;;;;25.00;8.00;;;;;;;1.33;55.36;100841.94;6186566;22;96479;-80
2024/01/20 00:46:00;;;;;;;18.23;6.87;;;;;;;1.38;55.37;100850.66;6187081;22;96871;-80
2024/01/20 00:48:25;;;;;;;20.60;7.53;;;;;;;1.32;55.68;100842.81;6212295;22;97955;-80
2024/01/20 00:50:51;;;;;;;17.73;7.63;;;;;;;1.23;55.38;100845.28;6212175;22;98087;-80
2024/01/20 00:53:17;;;;;;;22.10;7.30;;;;;;;1.32;55.28;100850.56;6212667;22;96524;-81
2024/01/20 00:55:42;;;;;;;14.53;7.17;;;;;;;1.26;55.63;100841.03;6161372;22;97033;-79
2024/01/20 00:58:08;;;;;;;27.63;8.23;;;;;;;1.33;55.31;100850.56;6186505;22;101509;-81
2024/01/20 01:00:33;;;;;;;17.57;6.03;;;;;;;1.30;55.08;100854.84;6212671;22;97818;-80
2024/01/20 01:02:59;;;;;;;15.87;6.97;;;;;;;1.19;54.89;100844.38;6186962;22;96480;-80
2024/01/20 01:05:24;;;;;;;19.37;7.67;;;;;;;1.03;55.39;100824.34;6187063;22;96816;-80
2024/01/20 01:07:50;;;;;;;20.87;8.37;;;;;;;0.99;55.70;100841.56;6185948;22;97851;-79
2024/01/20 01:10:16;;;;;;;21.60;7.47;;;;;;;1.08;55.34;100851.16;6186456;22;97948;-80
2024/01/20 01:12:41;;;;;;;23.40;8.60;;;;;;;1.08;55.50;100843.38;6187771;22;96564;-80
2024/01/20 01:15:07;;;;;;;27.83;8.83;;;;;;;1.16;54.99;100865.00;6162984;22;96743;-80
2024/01/20 01:17:33;;;;;;;18.70;7.60;;;;;;;1.06;54.84;100843.34;6162495;22;99904;-81
2024/01/20 01:19:58;;;;;;;19.83;8.70;;;;;;;1.11;55.47;100867.56;6187984;22;97850;-81
2024/01/20 01:22:24;;;;;;;20.60;8.13;;;;;;;0.94;55.57;100835.44;6213889;22;96445;-80
2024/01/20 01:24:49;;;;;;;25.03;7.97;;;;;;;0.89;55.57;100839.66;6163627;22;96797;-81
2024/01/20 01:27:16;;;;;;;25.47;8.07;;;;;;;1.04;55.60;100863.13;6187908;22;101665;-79
2024/01/20 01:29:42;;;;;;;22.00;7.47;;;;;;;0.88;55.70;100861.22;6188120;22;97618;-79
2024/01/20 01:32:07;;;;;;;23.03;6.87;;;;;;;0.84;55.98;100854.25;6213338;22;96455;-80
2024/01/20 01:34:33;;;;;;;23.30;7.50;;;;;;;0.87;55.82;100841.34;6162894;22;96952;-81
2024/01/20 01:36:58;;;;;;;24.70;7.90;;;;;;;0.58;56.08;100818.59;6187944;22;98111;-82
2024/01/20 01:39:24;;;;;;;23.07;7.30;;;;;;;0.95;55.81;100851.81;6187763;22;101753;-80
2024/01/20 01:41:49;;;;;;;22.83;8.70;;;;;;;0.93;55.55;100844.03;6213768;22;96591;-80
2024/01/20 01:44:15;;;;;;;21.53;7.70;;;;;;;0.81;55.50;100831.81;6162951;22;96861;-80
2024/01/20 01:46:40;;;;;;;20.07;6.90;;;;;;;0.79;56.36;100843.00;6162519;22;101411;-80
2024/01/20 01:49:07;;;;;;;24.23;7.07;;;;;;;0.76;56.56;100854.16;6188446;22;97237;-80
2024/01/20 01:51:32;;;;;;;19.33;6.40;;;;;;;0.65;56.50;100866.03;6215410;22;96570;-80
2024/01/20 01:54:02;;;;;;;17.53;6.10;;;;;;;0.61;56.69;100846.16;6213070;22;96930;-80
2024/01/20 01:56:28;;;;;;;14.27;6.20;;;;;;;0.60;56.73;100852.19;6212833;22;97429;-80
2024/01/20 01:58:58;;;;;;;17.60;6.67;;;;;;;0.50;57.33;100856.34;6187485;22;101448;-79
2024/01/20 02:01:24;;;;;;;17.17;6.23;;;;;;;0.65;57.25;100858.28;6162553;22;96530;-80
2024/01/20 02:03:50;;;;;;;21.37;7.47;;;;;;;0.64;57.05;100864.28;6213754;22;96744;-80
2024/01/20 02:06:16;;;;;;;15.00;6.63;;;;;;;0.56;57.42;100866.78;6187922;22;97884;-79
2024/01/20 02:08:42;;;;;;;24.77;8.27;;;;;;;0.68;57.24;100882.44;6213315;22;97646;-79
2024/01/20 02:11:08;;;;;;;20.73;7.53;;;;;;;0.43;57.14;100850.19;6162769;22;96574;-80
2024/01/20 02:13:34;;;;;;;18.73;5.90;;;;;;;0.61;57.20;100875.47;6188471;22;96508;-80
2024/01/20 02:16:01;;;;;;;16.13;6.20;;;;;;;0.75;56.62;100888.56;6213240;22;97573;-80
2024/01/20 02:18:27;;;;;;;19.27;6.93;;;;;;;0.80;56.31;100883.50;6187820;22;101220;-80
2024/01/20 02:20:53;;;;;;;24.33;6.63;;;;;;;0.77;56.19;100866.22;6213081;22;96574;-80
2024/01/20 02:23:18;;;;;;;16.73;6.50;;;;;;;0.88;56.24;100871.56;6213499;22;96807;-81
2024/01/20 02:25:45;;;;;;;12.23;6.17;;;;;;;0.94;55.94;100886.28;6187490;22;100953;-80
2024/01/20 02:28:11;;;;;;;22.53;6.80;;;;;;;0.78;56.02;100875.69;6162195;22;101118;-80
2024/01/20 02:30:36;;;;;;;24.93;8.33;;;;;;;0.65;56.07;100850.53;6162561;22;96527;-79
2024/01/20 02:33:02;;;;;;;22.60;7.93;;;;;;;0.83;55.84;100879.22;6188084;22;96757;-77
2024/01/20 02:35:27;;;;;;;17.43;6.57;;;;;;;0.78;55.62;100867.94;6187679;22;97397;-78
2024/01/20 02:37:53;;;;;;;15.50;6.60;;;;;;;0.97;55.20;100891.50;6213287;22;100667;-76
2024/01/20 02:40:18;;;;;;;13.80;5.97;;;;;;;0.88;55.48;100890.50;6187729;22;96521;-76
2024/01/20 02:42:44;;;;;;;18.27;6.97;;;;;;;0.71;55.57;100873.88;6213606;22;96741;-76
2024/01/20 02:45:10;;;;;;;14.03;5.50;;;;;;;0.83;55.26;100896.47;6161285;22;99862;-77
2024/01/20 02:47:35;;;;;;;15.40;5.90;;;;;;;0.70;55.72;100889.34;6187413;22;100690;-74
2024/01/20 02:50:00;;;;;;;15.53;6.57;;;;;;;0.78;55.67;100886.03;6162648;22;96508;-75
2024/01/20 02:52:26;;;;;;;18.20;7.07;;;;;;;0.83;55.47;100899.91;6215116;22;96689;-75
2024/01/20 02:54:51;;;;;;;19.87;7.83;;;;;;;0.77;55.52;100888.63;6212231;22;97927;-76
2024/01/20 02:57:19;;;;;;;14.33;7.20;;;;;;;0.72;55.14;100892.84;6212835;22;97947;-78
2024/01/20 02:59:44;;;;;;;21.20;6.90;;;;;;;0.61;55.03;100884.91;6187642;22;96629;-78
2024/01/20 03:02:10;;;;;;;14.97;6.67;;;;;;;0.58;54.96;100879.69;6213712;22;96711;-77
2024/01/20 03:04:35;;;;;;;14.00;5.63;;;;;;;0.66;54.95;100891.03;6162161;22;99206;-78
2024/01/20 03:07:01;;;;;;;21.83;7.57;;;;;;;0.62;54.73;100887.53;6214636;22;97355;-78
2024/01/20 03:09:26;;;;;;;16.50;7.70;;;;;;;0.81;54.60;100921.41;6187119;22;96467;-78
2024/01/20 03:11:52;;;;;;;18.93;7.17;;;;;;;0.87;54.84;100926.66;6213452;22;96759;-76
2024/01/20 03:14:17;;;;;;;18.57;6.43;;;;;;;0.78;54.35;100918.78;6212946;22;97583;-77
2024/01/20 03:16:43;;;;;;;14.93;7.10;;;;;;;0.79;54.44;100926.56;6212951;22;97811;-77
2024/01/20 03:19:08;;;;;;;17.33;5.77;;;;;;;0.76;54.23;100939.44;6162756;22;96545;-78
2024/01/20 03:21:34;;;;;;;13.83;5.67;;;;;;;0.74;53.87;100932.50;6187612;22;96865;-79
2024/01/20 03:24:00;;;;;;;16.63;5.60;;;;;;;0.64;54.23;100919.44;6161968;22;101598;-78
2024/01/20 03:26:25;;;;;;;13.57;5.57;;;;;;;0.52;54.07;100921.81;6187617;22;102345;-78
2024/01/20 03:28:50;;;;;;;14.77;5.70;;;;;;;0.56;54.34;100946.88;6213449;22;96543;-78
2024/01/20 03:31:17;;;;;;;17.97;5.60;;;;;;;0.46;54.05;100926.88;6162386;22;96780;-78
2024/01/20 03:33:42;;;;;;;11.80;6.07;;;;;;;0.40;53.77;100890.59;6161588;22;100306;-77
2024/01/20 03:36:09;;;;;;;12.43;6.20;;;;;;;0.64;53.55;100932.38;6212251;22;98385;-76
2024/01/20 03:38:35;;;;;;;12.87;5.40;;;;;;;0.60;53.90;100927.09;6187763;22;96419;-78
2024/01/20 03:41:01;;;;;;;11.47;5.03;;;;;;;0.44;53.66;100908.78;6187955;22;96710;-78
2024/01/20 03:43:26;;;;;;;13.67;6.30;;;;;;;0.62;53.74;100918.53;6161914;22;101315;-77
2024/01/20 03:45:53;;;;;;;11.97;5.03;;;;;;;0.62;53.51;100928.00;6187332;22;100726;-77
2024/01/20 03:48:19;;;;;;;14.33;5.50;;;;;;;0.51;53.91;100912.31;6213346;22;96472;-76
2024/01/20 03:50:44;;;;;;;12.90;4.70;;;;;;;0.59;53.96;100923.66;6213823;22;96717;-77
2024/01/20 03:53:10;;;;;;;13.70;4.87;;;;;;;0.56;53.60;100930.50;6187192;22;101375;-76
2024/01/20 03:55:36;;;;;;;13.77;5.90;;;;;;;0.37;53.56;100908.66;6161740;22;101050;-76
2024/01/20 03:58:01;;;;;;;13.83;5.37;;;;;;;0.38;53.49;100925.91;6187204;22;96610;-77
2024/01/20 04:00:27;;;;;;;12.20;5.43;;;;;;;0.12;53.53;100903.06;6213423;22;96762;-76
2024/01/20 04:02:52;;;;;;;12.47;5.47;;;;;;;0.34;53.87;100944.75;6214296;22;98006;-76
2024/01/20 04:05:18;;;;;;;14.83;5.73;;;;;;;0.18;53.51;100915.22;6212769;22;97574;-77
2024/01/20 04:07:43;;;;;;;12.90;5.40;;;;;;;0.34;53.58;100937.88;6162257;22;96568;-76
2024/01/20 04:10:09;;;;;;;7.53;4.83;;;;;;;0.45;53.18;100950.97;6213220;22;96707;-77
2024/01/20 04:12:35;;;;;;;11.50;5.97;;;;;;;0.41;53.34;100956.94;6161976;22;100828;-77
2024/01/20 04:15:01;;;;;;;14.63;5.47;;;;;;;0.28;53.41;100952.41;6162171;22;101033;-76
2024/01/20 04:17:26;;;;;;;9.80;4.53;;;;;;;0.39;53.43;100967.25;6187623;22;96479;-76
2024/01/20 04:19:52;;;;;;;14.57;5.67;;;;;;;0.37;52.93;100968.91;6187719;22;96797;-77
2024/01/20 04:22:17;;;;;;;11.13;4.17;;;;;;;0.24;53.18;100942.88;6211946;22;97429;-76
2024/01/20 04:24:43;;;;;;;13.83;4.50;;;;;;;0.40;52.95;100973.28;6187146;22;101115;-76
2024/01/20 04:27:09;;;;;;;12.20;4.93;;;;;;;0.48;53.39;100979.44;6187420;22;96522;-77
2024/01/20 04:29:34;;;;;;;14.77;5.17;;;;;;;0.40;52.90;100970.69;6187540;22;96855;-76
2024/01/20 04:32:00;;;;;;;14.10;5.00;;;;;;;0.41;52.69;100972.44;6187015;22;97479;-78
2024/01/20 04:34:25;;;;;;;10.63;4.60;;;;;;;0.37;53.08;100981.81;6212419;22;97887;-77
2024/01/20 04:36:51;;;;;;;18.60;5.03;;;;;;;0.42;52.87;100972.47;6212590;22;96526;-77
2024/01/20 04:39:16;;;;;;;11.73;4.40;;;;;;;0.45;53.06;100984.56;6187546;22;96656;-77
2024/01/20 04:41:41;;;;;;;10.13;4.63;;;;;;;0.34;52.80;100973.16;6186659;22;101807;-77
2024/01/20 04:44:07;;;;;;;10.80;4.70;;;;;;;0.37;52.74;100983.56;6186736;22;97390;-78
2024/01/20 04:46:32;;;;;;;16.53;6.53;;;;;;;0.36;52.34;100997.31;6187115;22;96887;-77
2024/01/20 04:48:58;;;;;;;14.30;4.37;;;;;;;0.25;52.98;100986.78;6188898;22;96800;-77
2024/01/20 04:51:23;;;;;;;9.77;4.33;;;;;;;0.28;52.44;100992.00;6188304;22;97708;-77
2024/01/20 04:53:49;;;;;;;10.47;4.00;;;;;;;0.14;52.57;100975.38;6192502;22;97299;-77
2024/01/20 04:56:19;;;;;;;8.17;3.67;;;;;;;0.15;53.15;101002.97;6168015;22;96551;-79
2024/01/20 04:58:45;;;;;;;12.47;4.77;;;;;;;0.12;52.83;101006.34;6193225;22;96753;-77
2024/01/20 05:01:11;;;;;;;9.97;4.20;;;;;;;0.24;52.78;101010.88;6167568;22;100807;-79
2024/01/20 05:03:36;;;;;;;10.90;4.07;;;;;;;0.11;52.54;100981.34;6218959;22;100982;-77
2024/01/20 05:06:02;;;;;;;11.43;4.90;;;;;;;0.36;52.47;101020.56;6219073;22;96483;-77
2024/01/20 05:08:27;;;;;;;8.37;3.97;;;;;;;0.39;52.84;101012.88;6193649;22;96722;-76
2024/01/20 05:10:53;;;;;;;9.43;3.80;;;;;;;0.27;53.15;100998.03;6217809;22;101153;-77
2024/01/20 05:13:18;;;;;;;10.90;4.33;;;;;;;0.28;52.31;101004.91;6218445;22;97731;-76
2024/01/20 05:15:44;;;;;;;11.93;5.70;;;;;;;0.43;52.23;101017.25;6193532;22;96573;-78
2024/01/20 05:18:09;;;;;;;9.00;4.97;;;;;;;0.31;52.19;101019.59;6168323;22;96836;-77
2024/01/20 05:20:35;;;;;;;10.93;4.13;;;;;;;0.40;52.64;101027.50;6167716;22;101280;-77
2024/01/20 05:23:00;;;;;;;20.90;5.67;;;;;;;0.37;52.71;101020.56;6218012;22;97259;-77
2024/01/20 05:25:26;;;;;;;11.30;4.57;;;;;;;0.38;52.39;101024.91;6168020;22;96469;-77
2024/01/20 05:27:51;;;;;;;8.43;3.53;;;;;;;0.32;52.29;101017.06;6219234;22;97001;-76
2024/01/20 05:30:17;;;;;;;9.43;4.83;;;;;;;0.40;52.09;101025.78;6192966;22;101160;-76
2024/01/20 05:32:42;;;;;;;10.60;4.07;;;;;;;0.48;52.47;101020.78;6192854;22;100981;-76
2024/01/20 05:35:08;;;;;;;9.27;3.83;;;;;;;0.47;52.15;101015.56;6192791;22;96485;-76
2024/01/20 05:37:33;;;;;;;8.43;3.87;;;;;;;0.33;52.43;101007.59;6218953;22;96708;-76
2024/01/20 05:39:59;;;;;;;8.77;3.30;;;;;;;0.21;52.55;101000.50;6192895;22;101570;-76
2024/01/20 05:42:24;;;;;;;10.60;3.70;;;;;;;0.35;52.19;101026.56;6245808;22;97772;-76
2024/01/20 05:44:50;;;;;;;13.03;3.50;;;;;;;0.35;52.10;101023.97;6193258;22;96512;-79
2024/01/20 05:47:16;;;;;;;7.40;3.30;;;;;;;0.40;51.94;101036.13;6218797;22;96660;-78
2024/01/20 05:49:41;;;;;;;13.20;3.90;;;;;;;0.39;52.40;101024.06;6192966;22;100538;-76
2024/01/20 05:52:07;;;;;;;8.47;3.37;;;;;;;0.43;51.87;101028.44;6193232;22;101193;-77
2024/01/20 05:54:32;;;;;;;11.57;6.00;;;;;;;0.52;51.95;101045.81;6193031;22;96558;-76
2024/01/20 05:56:58;;;;;;;13.43;5.20;;;;;;;0.38;51.97;101006.84;6192965;22;96932;-77
2024/01/20 05:59:23;;;;;;;14.87;5.57;;;;;;;0.59;51.93;101046.81;6191956;22;101074;-78
2024/01/20 06:01:50;;;;;;;12.20;5.30;;;;;;;0.47;51.93;101041.41;6192735;22;101762;-76
2024/01/20 06:04:19;;;;;;;14.90;5.40;;;;;;;0.56;51.99;101044.19;6193814;22;96521;-77
2024/01/20 06:06:48;;;;;;;18.20;5.60;;;;;;;0.42;52.23;101049.94;6168114;22;96871;-77
2024/01/20 06:09:14;;;;;;;9.27;4.63;;;;;;;0.30;52.16;101018.72;6218528;22;97927;-76
2024/01/20 06:11:40;;;;;;;11.20;4.30;;;;;;;0.53;51.89;101064.81;6218423;22;97393;-77
2024/01/20 06:14:05;;;;;;;7.80;4.43;;;;;;;0.06;51.69;100998.47;6193194;22;96479;-76
2024/01/20 06:16:31;;;;;;;11.33;4.77;;;;;;;0.40;51.25;101054.22;6168263;22;96776;-77
2024/01/20 06:18:57;;;;;;;12.00;4.30;;;;;;;0.42;51.45;101059.41;6192801;22;100822;-76
2024/01/20 06:21:22;;;;;;;13.13;5.27;;;;;;;0.36;51.44;101051.56;6167640;22;101524;-76
2024/01/20 06:23:51;;;;;;;12.93;4.63;;;;;;;0.43;51.68;101059.44;6192950;22;97114;-77
2024/01/20 06:26:16;;;;;;;12.90;4.90;;;;;;;0.36;51.38;101057.59;6193208;22;96710;-77
2024/01/20 06:28:42;;;;;;;10.80;5.13;;;;;;;0.44;51.50;101066.38;6192582;22;101165;-76
2024/01/20 06:31:08;;;;;;;12.87;5.53;;;;;;;0.31;51.90;101040.25;6167450;22;101463;-77
2024/01/20 06:33:33;;;;;;;10.57;4.57;;;;;;;0.43;51.50;101074.06;6218984;22;96542;-77
2024/01/20 06:35:59;;;;;;;12.20;4.80;;;;;;;0.39;52.00;101067.97;6193164;22;96753;-76
2024/01/20 06:38:25;;;;;;;10.60;4.97;;;;;;;0.41;51.88;101073.19;6167734;22;101223;-78
2024/01/20 06:40:50;;;;;;;13.40;5.20;;;;;;;0.35;51.72;101047.22;6167597;22;101646;-76
2024/01/20 06:43:16;;;;;;;11.70;4.83;;;;;;;0.01;52.16;100994.06;6218709;22;96531;-77
2024/01/20 06:45:42;;;;;;;10.50;4.47;;;;;;;0.37;52.37;101074.81;6193482;22;96694;-76
2024/01/20 06:48:07;;;;;;;9.93;4.47;;;;;;;0.33;52.38;101054.09;6217990;22;97388;-77
2024/01/20 06:50:33;;;;;;;9.93;5.00;;;;;;;0.39;52.34;101074.88;6218503;22;97258;-76
2024/01/20 06:52:58;;;;;;;11.17;4.63;;;;;;;0.38;52.48;101070.56;6167928;22;96558;-76
2024/01/20 06:55:24;;;;;;;10.63;5.23;;;;;;;0.40;52.22;101074.88;6167251;22;96800;-76
2024/01/20 06:57:49;;;;;;;9.33;4.90;;;;;;;0.44;52.08;101091.34;6167112;22;100876;-76
2024/01/20 07:00:15;;;;;;;9.43;5.00;;;;;;;0.42;52.68;101085.25;6218324;22;97345;-76
2024/01/20 07:02:40;;;;;;;10.27;4.90;;;;;;;0.42;52.95;101098.16;6218314;22;96495;-76
2024/01/20 07:05:06;;;;;;;8.70;4.40;;;;;;;0.50;52.34;101088.00;6219109;22;96667;-77
2024/01/20 07:07:32;;;;;;;12.40;5.20;;;;;;;0.39;52.55;101064.53;6192226;22;102307;-76
2024/01/20 07:09:57;;;;;;;8.87;4.43;;;;;;;0.58;52.93;101095.06;6191519;22;97470;-76
2024/01/20 07:12:24;;;;;;;8.97;4.47;;;;;;;0.50;52.61;101060.44;6192446;22;96767;-76
2024/01/20 07:14:49;;;;;;;14.20;4.83;;;;;;;0.66;52.21;101083.13;6217562;22;96880;-76
2024/01/20 07:17:15;;;;;;;11.47;4.87;;;;;;;0.45;52.54;101043.97;6218138;22;97566;-76
2024/01/20 07:19:40;;;;;;;9.87;4.67;;;;;;;0.70;52.66;101083.19;6217882;22;101032;-78
2024/01/20 07:22:06;;;;;;;8.77;4.40;;;;;;;0.55;52.94;101056.22;6218483;22;96440;-76
2024/01/20 07:24:31;;;;;;;11.50;5.00;;;;;;;0.75;52.73;101077.25;6167651;22;96927;-76
2024/01/20 07:26:57;;;;;;;11.20;4.87;;;;;;;0.77;52.51;101072.13;6245413;22;97877;-76
2024/01/20 07:29:23;;;;;;;13.73;5.53;;;;;;;0.95;52.56;101090.53;6193085;22;101284;-76
2024/01/20 07:31:50;;;;;;;9.20;4.83;;;;;;;1.09;52.45;101086.47;6193013;22;96475;-76
2024/01/20 07:34:15;;;;;;;11.20;5.13;;;;;;;1.13;51.82;101071.88;6167572;22;96972;-77
2024/01/20 07:36:41;;;;;;;13.53;5.63;;;;;;;1.40;51.60;101080.91;6191624;22;101140;-77
2024/01/20 07:39:06;;;;;;;13.07;5.67;;;;;;;0.93;51.67;100990.50;6192436;22;101149;-76
2024/01/20 07:41:32;;;;;;;15.47;6.27;;;;;;;1.47;51.21;101060.34;6167468;22;96570;-76
2024/01/20 07:43:57;;;;;;;11.30;5.80;;;;;;;1.71;50.92;101085.69;6167408;22;96521;-77
2024/01/20 07:46:23;;;;;;;14.10;5.87;;;;;;;1.79;51.13;101091.84;6217877;22;100758;-76
2024/01/20 07:48:48;;;;;;;13.53;6.30;;;;;;;1.89;51.01;101087.69;6166953;22;101475;-77
2024/01/20 07:51:14;;;;;;;12.30;6.27;;;;;;;1.86;50.67;101051.38;6192679;22;96486;-77
2024/01/20 07:53:39;;;;;;;13.13;6.23;;;;;;;2.24;50.34;101106.28;6167744;22;96756;-76
2024/01/20 07:56:08;;;;;;;14.23;6.30;;;;;;;2.56;50.17;101110.97;6192197;22;98418;-76
2024/01/20 07:58:34;;;;;;;14.17;6.30;;;;;;;2.85;49.25;101118.16;6192834;22;98344;-76
2024/01/20 08:00:59;;;;;;;18.70;7.57;;;;;;;3.03;48.98;101114.91;6191557;22;96598;-77
2024/01/20 08:03:25;;;;;;;13.30;5.57;;;;;;;3.35;48.68;101110.88;6167243;22;96520;-78
2024/01/20 08:05:51;;;;;;;16.90;8.40;;;;;;;3.77;47.56;101121.53;6217948;22;97410;-77
2024/01/20 08:08:16;;;;;;;14.37;7.33;;;;;;;4.14;47.11;101116.56;6166838;22;101407;-78
2024/01/20 08:10:42;;;;;;;15.20;6.70;;;;;;;4.37;46.72;101122.75;6192402;22;96462;-76
2024/01/20 08:13:07;;;;;;;13.73;7.00;;;;;;;4.49;45.90;101114.13;6192753;22;96779;-75
2024/01/20 08:15:33;;;;;;;11.83;5.70;;;;;;;4.67;45.52;101115.91;6191858;22;101030;-76
2024/01/20 08:17:58;;;;;;;13.77;6.43;;;;;;;5.11;45.42;101125.53;6217922;22;97856;-76
2024/01/20 08:20:24;;;;;;;12.50;5.88;;;;;;;5.62;43.92;101121.22;6192292;22;96499;-76
2024/01/20 08:22:50;;;;;;;12.98;6.00;;;;;;;6.06;43.01;101130.72;6219215;22;96809;-76
2024/01/20 08:25:15;;;;;;;13.57;5.93;;;;;;;6.12;42.96;101120.28;6192518;22;100898;-78
2024/01/20 08:27:41;;;;;;;10.52;5.60;;;;;;;6.24;42.80;101145.44;6218953;22;97748;-77
2024/01/20 08:30:07;;;;;;;13.43;6.13;;;;;;;6.34;42.67;101137.59;6219125;22;96578;-77
2024/01/20 08:32:32;;;;;;;14.43;6.95;;;;;;;6.34;42.32;101124.53;6193370;22;96852;-77
2024/01/20 08:34:58;;;;;;;14.02;6.50;;;;;;;6.76;42.13;101145.22;6193257;22;101044;-77
2024/01/20 08:37:23;;;;;;;12.20;6.18;;;;;;;6.88;41.52;101147.75;6192807;22;100825;-77
2024/01/20 08:39:49;;;;;;;11.63;6.10;;;;;;;7.02;41.91;101145.94;6218941;22;96514;-77
2024/01/20 08:42:17;;;;;;;9.82;5.55;;;;;;;7.02;41.54;101134.63;6194093;22;96805;-77
2024/01/20 08:44:42;;;;;;;11.80;6.10;;;;;;;7.14;41.14;101146.72;6246120;22;97333;-77
2024/01/20 08:47:07;;;;;;;10.40;5.28;;;;;;;7.18;40.56;101148.44;6193117;22;97252;-77
2024/01/20 08:49:33;;;;;;;12.45;5.88;;;;;;;7.18;40.53;101146.69;6167650;22;96412;-77
2024/01/20 08:51:58;;;;;;;12.73;6.57;;;;;;;7.34;40.52;101151.81;6219041;22;96787;-77
2024/01/20 08:54:24;;;;;;;14.93;6.78;;;;;;;7.51;40.40;101163.00;6213001;22;97490;-77
2024/01/20 08:56:50;;;;;;;13.48;6.72;;;;;;;7.63;40.30;101172.50;6213350;22;101372;-77
2024/01/20 08:59:15;;;;;;;12.73;6.70;;;;;;;7.98;39.65;101145.16;6163261;22;96622;-77
2024/01/20 09:01:41;;;;;;;16.02;7.50;;;;;;;8.29;38.96;101166.59;6214185;22;96682;-79
2024/01/20 09:04:06;;;;;;;12.30;6.82;;;;;;;8.30;38.72;101161.34;6188106;22;101488;-78
2024/01/20 09:06:32;;;;;;;13.32;6.68;;;;;;;8.59;38.31;101161.03;6188607;22;97105;-78
2024/01/20 09:08:57;;;;;;;20.27;6.60;;;;;;;8.62;38.36;101165.38;6213983;22;96515;-77
2024/01/20 09:11:23;;;;;;;17.10;7.15;;;;;;;9.07;37.30;101176.09;6213929;22;96774;-78
2024/01/20 09:13:48;;;;;;;12.55;6.10;;;;;;;9.19;37.18;101170.72;6187372;22;101466;-77
2024/01/20 09:16:14;;;;;;;12.20;6.35;;;;;;;9.12;37.30;101163.81;6188140;22;97282;-77
2024/01/20 09:18:39;;;;;;;14.63;6.40;;;;;;;9.21;36.96;101155.81;6188367;22;96473;-77
2024/01/20 09:21:10;;;;;;;11.27;6.18;;;;;;;9.17;37.05;101156.75;6188428;22;96785;-77
2024/01/20 09:23:36;;;;;;;14.10;7.57;;;;;;;9.20;36.47;101171.56;6213880;22;97338;-79
2024/01/20 09:26:01;;;;;;;13.82;7.13;;;;;;;9.21;36.87;101196.88;6162577;22;101700;-77
2024/01/20 09:28:27;;;;;;;14.23;6.07;;;;;;;9.28;36.63;101191.53;6162847;22;96500;-79
2024/01/20 09:30:52;;;;;;;12.70;7.20;;;;;;;9.18;36.22;101189.91;6214145;22;96469;-77
2024/01/20 09:33:18;;;;;;;14.00;7.95;;;;;;;9.33;36.68;101173.09;6213107;22;97402;-77
2024/01/20 09:35:43;;;;;;;12.90;6.90;;;;;;;9.60;36.38;101186.66;6187997;22;100990;-77
2024/01/20 09:38:09;;;;;;;13.77;6.88;;;;;;;9.21;36.40;101189.00;6213079;22;96466;-77
2024/01/20 09:40:35;;;;;;;13.43;7.15;;;;;;;9.52;36.03;101194.66;6213823;22;96817;-77
2024/01/20 09:43:02;;;;;;;16.33;7.07;;;;;;;9.89;35.75;101191.41;6213494;22;97428;-77
2024/01/20 09:45:27;;;;;;;19.50;7.50;;;;;;;9.88;35.60;101198.41;6188051;22;97810;-77
2024/01/20 09:47:53;;;;;;;14.02;7.30;;;;;;;10.02;35.74;101192.94;6163147;22;96555;-78
2024/01/20 09:50:19;;;;;;;12.45;6.45;;;;;;;9.80;35.95;101160.09;6188428;22;96823;-77
2024/01/20 09:52:57;;;;;;;9.50;6.28;;;;;;;9.34;36.84;101185.34;6162527;22;101390;-77
2024/01/20 09:55:23;;;;;;;14.48;7.07;;;;;;;8.76;37.16;101179.16;6188358;22;101405;-77
2024/01/20 09:57:52;;;;;;;13.20;6.47;;;;;;;8.37;38.21;101170.00;6213689;22;96562;-77
2024/01/20 10:00:20;;;;;;;10.23;5.82;;;;;;;8.55;38.40;101188.16;6162768;22;96728;-78
2024/01/20 10:02:46;;;;;;;7.90;4.72;;;;;;;8.53;38.59;101175.97;6212712;22;97405;-77
2024/01/20 10:05:12;;;;;;;10.15;5.35;;;;;;;8.30;39.08;101169.22;6187761;22;101141;-77
2024/01/20 10:07:38;;;;;;;10.45;4.13;;;;;;;7.86;39.14;101159.22;6188148;22;96456;-77
2024/01/20 10:10:05;;;;;;;10.50;3.83;;;;;;;7.69;39.74;101159.38;6162877;22;96571;-77
2024/01/20 10:12:30;;;;;;;9.48;4.10;;;;;;;7.52;40.16;101146.44;6213205;22;97458;-77
2024/01/20 10:14:56;;;;;;;7.68;4.18;;;;;;;7.70;40.20;101179.38;6213291;22;97346;-78
2024/01/20 10:17:21;;;;;;;8.30;4.13;;;;;;;7.67;40.40;101161.97;6187900;22;96548;-77
2024/01/20 10:19:47;;;;;;;9.77;4.53;;;;;;;7.56;40.32;101135.06;6188734;22;96810;-77
2024/01/20 10:22:13;;;;;;;10.07;4.30;;;;;;;7.55;40.64;101169.06;6187520;22;101062;-77
2024/01/20 10:24:51;;;;;;;8.85;4.18;;;;;;;7.44;40.09;101135.19;6187822;22;100935;-77
2024/01/20 10:27:24;;;;;;;9.27;4.72;;;;;;;7.64;40.66;101148.94;6187071;22;96527;-78
2024/01/20 10:29:50;;;;;;;11.25;4.10;;;;;;;7.82;40.53;101168.81;6188908;22;96487;-77
2024/01/20 10:32:16;;;;;;;6.88;3.80;;;;;;;7.50;40.34;101142.97;6213392;22;97615;-78
2024/01/20 10:34:42;;;;;;;6.63;3.90;;;;;;;7.81;40.23;101169.69;6187581;22;101131;-78
2024/01/20 10:37:12;;;;;;;11.45;4.38;;;;;;;7.77;40.97;101165.41;6188142;22;96473;-78
2024/01/20 10:39:44;;;;;;;8.15;4.40;;;;;;;7.60;40.87;101186.44;6213146;22;96740;-78
2024/01/20 10:42:14;;;;;;;11.88;4.30;;;;;;;7.66;41.01;101186.38;6187340;22;100936;-77
2024/01/20 10:45:06;;;;;;;8.65;5.13;;;;;;;7.56;40.92;101186.47;6187886;22;97498;-77
2024/01/20 10:47:36;;;;;;;9.63;4.88;;;;;;;7.28;41.66;101165.78;6188821;22;96470;-77
2024/01/20 10:50:06;;;;;;;9.40;4.95;;;;;;;7.39;41.21;101161.34;6162433;22;96944;-78
2024/01/20 10:52:35;;;;;;;9.90;5.30;;;;;;;7.51;40.88;101172.59;6212751;22;97370;-78
2024/01/20 10:55:03;;;;;;;9.95;4.78;;;;;;;7.54;41.08;101176.03;6186945;22;101294;-78
2024/01/20 10:57:28;;;;;;;12.35;6.07;;;;;;;7.37;41.48;101173.56;6162364;22;96541;-77
2024/01/20 10:59:56;;;;;;;9.77;5.43;;;;;;;7.41;41.23;101163.94;6213541;22;96672;-78
2024/01/20 11:02:24;;;;;;;6.93;4.18;;;;;;;7.26;41.07;101167.53;6187385;22;98986;-78
2024/01/20 11:04:49;;;;;;;8.18;4.47;;;;;;;7.01;41.82;101169.41;6213085;22;97999;-75
2024/01/20 11:07:28;;;;;;;8.68;3.95;;;;;;;7.26;42.12;101176.22;6213557;22;96459;-77
2024/01/20 11:10:00;;;;;;;13.57;5.28;;;;;;;7.27;41.69;101166.63;6189096;22;96480;-77
2024/01/20 11:12:26;;;;;;;8.52;4.82;;;;;;;7.24;42.04;101172.78;6187216;22;101347;-77
2024/01/20 11:14:54;;;;;;;17.95;7.88;;;;;;;7.12;41.92;101146.72;6187460;22;98060;-78
2024/01/20 11:17:20;;;;;;;12.52;6.07;;;;;;;6.88;42.08;101137.31;6161750;22;96590;-77
2024/01/20 11:19:46;;;;;;;11.68;6.28;;;;;;;7.13;41.65;101164.16;6187532;22;96756;-79